createdAt,value
2023-03-18T00:01:28.240Z,100109.44
2023-03-18T00:03:30.460Z,100108.03
2023-03-18T00:05:32.187Z,100106.13
2023-03-18T00:07:35.423Z,100107.41
2023-03-18T00:09:37.425Z,100107.91
2023-03-18T00:11:39.228Z,100110.28
2023-03-18T00:13:41.458Z,100112.50
2023-03-18T00:15:43.288Z,100110.63
2023-03-18T00:17:45.692Z,100113.94
2023-03-18T00:19:47.560Z,100108.03
2023-03-18T00:21:49.143Z,100115.03
2023-03-18T00:23:52.083Z,100122.06
2023-03-18T00:25:55.523Z,100124.16
2023-03-18T00:27:57.059Z,100123.66
2023-03-18T00:29:58.687Z,100121.44
2023-03-18T00:32:00.613Z,100126.56
2023-03-18T00:34:02.277Z,100127.38
2023-03-18T00:36:04.719Z,100128.28
2023-03-18T00:38:06.728Z,100139.06
2023-03-18T00:40:12.021Z,100128.25
2023-03-18T00:42:13.597Z,100140.53
2023-03-18T00:44:15.432Z,100139.56
2023-03-18T00:46:19.270Z,100137.75
2023-03-18T00:48:20.967Z,100146.38
2023-03-18T00:50:22.509Z,100141.16
2023-03-18T00:52:24.075Z,100135.72
2023-03-18T00:54:25.680Z,100137.34
2023-03-18T00:56:31.150Z,100138.31
2023-03-18T00:58:32.731Z,100142.31
2023-03-18T01:00:34.831Z,100142.03
2023-03-18T01:02:36.573Z,100141.38
2023-03-18T01:04:38.160Z,100139.66
2023-03-18T01:06:39.716Z,100148.97
2023-03-18T01:08:41.892Z,100148.81
2023-03-18T01:10:43.371Z,100148.53
2023-03-18T01:12:46.408Z,100148.63
2023-03-18T01:14:48.194Z,100144.03
2023-03-18T01:16:50.609Z,100145.75
2023-03-18T01:18:52.824Z,100139.06
2023-03-18T01:20:54.422Z,100143.47
2023-03-18T01:22:57.926Z,100145.88
2023-03-18T01:24:59.500Z,100136.94
2023-03-18T01:27:01.077Z,100143.47
2023-03-18T01:29:04.286Z,100139.84
2023-03-18T01:31:05.847Z,100141.25
2023-03-18T01:33:07.899Z,100136.84
2023-03-18T01:35:10.514Z,100138.41
2023-03-18T01:37:12.106Z,100144.97
2023-03-18T01:39:14.610Z,100139.06
2023-03-18T01:41:16.010Z,100145.00
2023-03-18T01:43:20.205Z,100143.94
2023-03-18T01:45:26.121Z,100144.44
2023-03-18T01:47:27.725Z,100145.81
2023-03-18T01:49:33.767Z,100141.22
2023-03-18T01:51:36.753Z,100138.50
2023-03-18T01:53:41.818Z,100138.03
2023-03-18T01:55:44.958Z,100139.44
2023-03-18T01:57:52.921Z,100140.66
2023-03-18T01:59:56.637Z,100141.59
2023-03-18T02:02:03.404Z,100147.63
2023-03-18T02:04:07.347Z,100138.50
2023-03-18T02:06:09.114Z,100128.28
2023-03-18T02:08:10.737Z,100118.25
2023-03-18T02:10:15.102Z,100111.53
2023-03-18T02:12:22.478Z,100104.03
2023-03-18T02:14:26.309Z,100102.09
2023-03-18T02:16:32.175Z,100111.06
2023-03-18T02:18:38.529Z,100118.38
2023-03-18T02:20:55.034Z,100115.03
2023-03-18T02:23:09.281Z,100118.25
2023-03-18T02:25:21.718Z,100120.47
2023-03-18T02:27:26.382Z,100114.53
2023-03-18T02:29:30.783Z,100118.06
2023-03-18T02:31:36.263Z,100129.69
2023-03-18T02:33:40.297Z,100126.38
2023-03-18T02:35:44.669Z,100127.97
2023-03-18T02:37:46.390Z,100132.13
2023-03-18T02:39:48.066Z,100130.31
2023-03-18T02:41:49.730Z,100141.16
2023-03-18T02:43:53.263Z,100140.03
2023-03-18T02:46:06.177Z,100141.78
2023-03-18T02:48:11.378Z,100146.09
2023-03-18T02:50:13.017Z,100144.09
2023-03-18T02:52:14.598Z,100139.13
2023-03-18T02:54:20.785Z,100143.00
2023-03-18T02:56:22.368Z,100147.63
2023-03-18T02:58:23.921Z,100141.91
2023-03-18T03:00:27.063Z,100145.84
2023-03-18T03:02:28.713Z,100147.47
2023-03-18T03:04:30.370Z,100148.06
2023-03-18T03:06:32.060Z,100141.72
2023-03-18T03:08:33.626Z,100146.97
2023-03-18T03:10:35.279Z,100146.81
2023-03-18T03:12:37.496Z,100147.91
2023-03-18T03:14:39.061Z,100147.63
2023-03-18T03:16:42.468Z,100150.94
2023-03-18T03:18:44.348Z,100150.16
2023-03-18T03:20:46.247Z,100153.66
2023-03-18T03:22:51.504Z,100156.38
2023-03-18T03:24:53.228Z,100155.38
2023-03-18T03:26:54.782Z,100158.91
2023-03-18T03:28:56.406Z,100167.63
2023-03-18T03:30:58.426Z,100170.34
2023-03-18T03:33:01.764Z,100166.53
2023-03-18T03:35:03.729Z,100175.75
2023-03-18T03:37:05.770Z,100166.53
2023-03-18T03:39:07.394Z,100165.25
2023-03-18T03:41:10.252Z,100157.41
2023-03-18T03:43:12.861Z,100163.31
2023-03-18T03:45:16.384Z,100156.00
2023-03-18T03:47:17.950Z,100159.63
2023-03-18T03:49:20.996Z,100174.06
2023-03-18T03:51:22.670Z,100174.06
2023-03-18T03:53:24.498Z,100172.03
2023-03-18T03:55:26.320Z,100172.88
2023-03-18T03:57:28.007Z,100169.84
2023-03-18T03:59:29.744Z,100164.56
2023-03-18T04:01:31.599Z,100168.19
2023-03-18T04:03:33.189Z,100172.69
2023-03-18T04:05:36.124Z,100176.50
2023-03-18T04:07:37.833Z,100177.47
2023-03-18T04:09:39.401Z,100175.25
2023-03-18T04:11:40.977Z,100171.56
2023-03-18T04:13:42.672Z,100172.78
2023-03-18T04:15:44.283Z,100173.38
2023-03-18T04:17:46.257Z,100176.72
2023-03-18T04:19:48.108Z,100177.00
2023-03-18T04:21:51.160Z,100172.41
2023-03-18T04:23:52.687Z,100172.00
2023-03-18T04:25:54.319Z,100173.91
2023-03-18T04:27:56.010Z,100175.00
2023-03-18T04:29:57.639Z,100176.31
2023-03-18T04:31:59.294Z,100175.41
2023-03-18T04:34:00.911Z,100175.13
2023-03-18T04:36:02.546Z,100173.59
2023-03-18T04:38:05.535Z,100173.22
2023-03-18T04:40:07.976Z,100175.44
2023-03-18T04:42:09.810Z,100172.84
2023-03-18T04:44:11.553Z,100172.84
2023-03-18T04:46:13.184Z,100169.22
2023-03-18T04:48:14.816Z,100176.53
2023-03-18T04:50:16.984Z,100170.94
2023-03-18T04:52:18.745Z,100174.63
2023-03-18T04:54:21.919Z,100181.66
2023-03-18T04:56:23.692Z,100176.53
2023-03-18T04:58:25.260Z,100177.84
2023-03-18T05:00:27.024Z,100183.44
2023-03-18T05:02:28.602Z,100185.84
2023-03-18T05:04:30.520Z,100177.84
2023-03-18T05:06:32.547Z,100185.16
2023-03-18T05:08:34.122Z,100186.06
2023-03-18T05:10:37.217Z,100183.16
2023-03-18T05:12:39.014Z,100182.84
2023-03-18T05:14:41.091Z,100189.88
2023-03-18T05:16:42.760Z,100185.56
2023-03-18T05:18:44.569Z,100195.09
2023-03-18T05:20:46.154Z,100195.09
2023-03-18T05:22:47.708Z,100189.19
2023-03-18T05:24:49.736Z,100197.91
2023-03-18T05:26:52.675Z,100195.69
2023-03-18T05:28:54.536Z,100190.09
2023-03-18T05:30:56.064Z,100197.91
2023-03-18T05:32:57.648Z,100200.72
2023-03-18T05:34:59.186Z,100186.09
2023-03-18T05:37:00.687Z,100190.69
2023-03-18T05:39:02.334Z,100196.63
2023-03-18T05:41:04.261Z,100198.41
2023-03-18T05:43:07.381Z,100197.31
2023-03-18T05:45:09.577Z,100208.63
2023-03-18T05:47:11.586Z,100201.81
2023-03-18T05:49:13.101Z,100208.22
2023-03-18T05:51:14.738Z,100205.34
2023-03-18T05:53:18.162Z,100210.75
2023-03-18T05:55:19.944Z,100205.94
2023-03-18T05:57:21.579Z,100202.13
2023-03-18T05:59:24.576Z,100204.63
2023-03-18T06:01:26.226Z,100206.53
2023-03-18T06:03:27.963Z,100205.34
2023-03-18T06:05:30.007Z,100206.13
2023-03-18T06:07:31.838Z,100213.63
2023-03-18T06:09:33.567Z,100210.44
2023-03-18T06:11:35.616Z,100213.13
2023-03-18T06:13:37.184Z,100208.72
2023-03-18T06:15:40.401Z,100204.59
2023-03-18T06:17:42.313Z,100204.28
2023-03-18T06:19:43.838Z,100208.31
2023-03-18T06:21:45.407Z,100211.03
2023-03-18T06:23:46.940Z,100217.72
2023-03-18T06:25:48.547Z,100206.81
2023-03-18T06:27:50.332Z,100213.22
2023-03-18T06:29:51.972Z,100215.00
2023-03-18T06:31:55.019Z,100220.31
2023-03-18T06:33:56.721Z,100225.19
2023-03-18T06:35:58.520Z,100226.69
2023-03-18T06:38:00.251Z,100230.19
2023-03-18T06:40:01.941Z,100230.09
2023-03-18T06:42:05.764Z,100226.28
2023-03-18T06:44:07.346Z,100226.44
2023-03-18T06:46:08.974Z,100218.50
2023-03-18T06:48:11.949Z,100216.56
2023-03-18T06:50:13.584Z,100223.09
2023-03-18T06:52:15.448Z,100223.41
2023-03-18T06:54:16.977Z,100226.81
2023-03-18T06:56:18.541Z,100232.41
2023-03-18T06:58:20.168Z,100233.91
2023-03-18T07:00:22.296Z,100236.63
2023-03-18T07:02:24.273Z,100237.59
2023-03-18T07:04:27.552Z,100232.84
2023-03-18T07:06:29.657Z,100239.84
2023-03-18T07:08:31.204Z,100245.00
2023-03-18T07:10:32.833Z,100247.56
2023-03-18T07:12:34.420Z,100244.09
2023-03-18T07:14:36.068Z,100244.97
2023-03-18T07:16:37.693Z,100242.28
2023-03-18T07:18:39.277Z,100245.88
2023-03-18T07:20:42.215Z,100250.72
2023-03-18T07:22:45.034Z,100250.16
2023-03-18T07:24:46.775Z,100246.84
2023-03-18T07:26:48.869Z,100248.78
2023-03-18T07:28:50.508Z,100253.13
2023-03-18T07:30:54.150Z,100251.56
2023-03-18T07:32:55.979Z,100255.88
2023-03-18T07:34:57.675Z,100257.94
2023-03-18T07:37:00.616Z,100256.22
2023-03-18T07:39:02.210Z,100252.06
2023-03-18T07:41:03.961Z,100259.75
2023-03-18T07:43:05.991Z,100258.94
2023-03-18T07:45:09.360Z,100264.56
2023-03-18T07:47:11.142Z,100262.31
2023-03-18T07:49:12.715Z,100252.91
2023-03-18T07:51:14.348Z,100254.06
2023-03-18T07:53:17.498Z,100259.31
2023-03-18T07:55:19.022Z,100263.31
2023-03-18T07:57:20.809Z,100258.53
2023-03-18T07:59:22.502Z,100254.03
2023-03-18T08:01:24.147Z,100258.00
2023-03-18T08:03:25.954Z,100266.00
2023-03-18T08:05:27.587Z,100262.31
2023-03-18T08:07:29.214Z,100253.47
2023-03-18T08:09:32.225Z,100262.94
2023-03-18T08:11:33.882Z,100264.19
2023-03-18T08:13:37.724Z,100263.06
2023-03-18T08:15:39.663Z,100264.47
2023-03-18T08:17:43.328Z,100266.84
2023-03-18T08:19:50.830Z,100270.22
2023-03-18T08:21:52.451Z,100270.06
2023-03-18T08:23:54.147Z,100257.41
2023-03-18T08:25:57.099Z,100260.00
2023-03-18T08:27:58.690Z,100272.47
2023-03-18T08:30:02.966Z,100270.88
2023-03-18T08:32:05.909Z,100271.53
2023-03-18T08:34:07.498Z,100265.59
2023-03-18T08:36:09.340Z,100270.69
2023-03-18T08:38:11.011Z,100271.25
2023-03-18T08:40:13.287Z,100275.00
2023-03-18T08:42:16.208Z,100279.63
2023-03-18T08:44:30.107Z,100279.16
2023-03-18T08:46:31.862Z,100274.38
2023-03-18T08:48:33.439Z,100278.41
2023-03-18T08:50:35.935Z,100278.03
2023-03-18T08:52:37.499Z,100277.28
2023-03-18T08:54:39.179Z,100273.84
2023-03-18T08:56:40.747Z,100267.22
2023-03-18T08:58:46.507Z,100268.75
2023-03-18T09:00:51.024Z,100273.72
2023-03-18T09:02:52.801Z,100266.53
2023-03-18T09:04:54.708Z,100267.56
2023-03-18T09:06:56.426Z,100272.06
2023-03-18T09:08:58.339Z,100274.31
2023-03-18T09:11:00.040Z,100267.75
2023-03-18T09:13:01.629Z,100267.34
2023-03-18T09:15:05.680Z,100271.28
2023-03-18T09:17:07.250Z,100274.56
2023-03-18T09:19:08.808Z,100268.50
2023-03-18T09:21:10.363Z,100265.00
2023-03-18T09:23:13.935Z,100265.75
2023-03-18T09:25:15.545Z,100261.31
2023-03-18T09:27:17.139Z,100269.16
2023-03-18T09:29:18.702Z,100261.75
2023-03-18T09:31:21.887Z,100255.50
2023-03-18T09:33:23.866Z,100251.03
2023-03-18T09:35:25.656Z,100245.31
2023-03-18T09:37:27.264Z,100247.69
2023-03-18T09:39:28.809Z,100245.97
2023-03-18T09:41:46.330Z,100233.75
2023-03-18T09:44:01.137Z,100239.13
2023-03-18T09:46:09.940Z,100237.72
2023-03-18T09:48:40.603Z,100239.03
2023-03-18T09:50:51.514Z,100234.38
2023-03-18T09:53:05.340Z,100235.63
2023-03-18T09:55:18.656Z,100229.50
2023-03-18T09:57:28.675Z,100235.34
2023-03-18T09:59:37.715Z,100236.47
2023-03-18T10:01:41.168Z,100228.06
2023-03-18T10:03:48.634Z,100221.16
2023-03-18T10:06:00.630Z,100222.78
2023-03-18T10:08:08.818Z,100227.47
2023-03-18T10:10:19.698Z,100230.34
2023-03-18T10:12:29.562Z,100233.84
2023-03-18T10:14:37.277Z,100224.13
2023-03-18T10:16:48.887Z,100232.03
2023-03-18T10:18:51.922Z,100232.53
2023-03-18T10:21:05.037Z,100232.69
2023-03-18T10:23:21.103Z,100230.75
2023-03-18T10:25:28.396Z,100229.31
2023-03-18T10:27:42.239Z,100230.28
2023-03-18T10:29:49.485Z,100224.75
2023-03-18T10:32:05.685Z,100230.22
2023-03-18T10:34:11.595Z,100227.13
2023-03-18T10:36:19.224Z,100222.09
2023-03-18T10:38:24.796Z,100218.28
2023-03-18T10:40:29.258Z,100211.59
2023-03-18T10:42:32.898Z,100218.25
2023-03-18T10:44:38.436Z,100211.28
2023-03-18T10:46:41.862Z,100221.94
2023-03-18T10:48:46.727Z,100218.81
2023-03-18T10:50:56.510Z,100225.81
2023-03-18T10:53:04.867Z,100219.31
2023-03-18T10:55:15.785Z,100225.84
2023-03-18T10:57:18.477Z,100220.09
2023-03-18T10:59:23.151Z,100222.91
2023-03-18T11:01:27.884Z,100205.91
2023-03-18T11:03:34.044Z,100213.41
2023-03-18T11:05:37.232Z,100224.06
2023-03-18T11:07:58.503Z,100213.91
2023-03-18T11:10:13.596Z,100220.13
2023-03-18T11:12:18.962Z,100205.75
2023-03-18T11:14:22.375Z,100200.19
2023-03-18T11:16:28.916Z,100204.28
2023-03-18T11:18:30.767Z,100202.38
2023-03-18T11:20:35.434Z,100202.88
2023-03-18T11:22:37.930Z,100198.19
2023-03-18T11:24:40.951Z,100203.72
2023-03-18T11:26:53.944Z,100204.50
2023-03-18T11:28:57.243Z,100204.84
2023-03-18T11:31:05.850Z,100202.81
2023-03-18T11:33:15.327Z,100200.72
2023-03-18T11:35:20.339Z,100198.06
2023-03-18T11:37:23.800Z,100205.22
2023-03-18T11:39:29.418Z,100198.56
2023-03-18T11:41:32.329Z,100194.59
2023-03-18T11:43:34.515Z,100190.06
2023-03-18T11:45:47.461Z,100180.81
2023-03-18T11:47:49.133Z,100190.91
2023-03-18T11:49:50.790Z,100196.19
2023-03-18T11:51:58.301Z,100190.56
2023-03-18T11:54:12.062Z,100199.16
2023-03-18T11:56:20.670Z,100186.06
2023-03-18T11:58:49.967Z,100175.59
2023-03-18T12:00:58.386Z,100177.34
2023-03-18T12:03:47.495Z,100174.66
2023-03-18T12:06:08.320Z,100168.50
2023-03-18T12:08:17.091Z,100171.22
2023-03-18T12:10:24.773Z,100163.94
2023-03-18T12:12:44.274Z,100160.06
2023-03-18T12:14:53.498Z,100166.59
2023-03-18T12:17:05.289Z,100164.72
2023-03-18T12:19:36.686Z,100168.66
2023-03-18T12:21:52.992Z,100163.72
2023-03-18T12:24:11.509Z,100157.69
2023-03-18T12:26:19.537Z,100151.50
2023-03-18T12:28:31.949Z,100158.91
2023-03-18T12:31:00.642Z,100157.69
2023-03-18T12:33:09.141Z,100155.13
2023-03-18T12:35:28.577Z,100156.16
2023-03-18T12:37:41.599Z,100149.75
2023-03-18T12:39:58.719Z,100151.13
2023-03-18T12:42:03.230Z,100157.53
2023-03-18T12:44:23.769Z,100152.81
2023-03-18T12:46:31.955Z,100151.97
2023-03-18T12:48:44.005Z,100151.13
2023-03-18T12:51:00.586Z,100144.72
2023-03-18T12:53:05.087Z,100149.31
2023-03-18T12:55:15.291Z,100157.91
2023-03-18T12:57:26.316Z,100156.56
2023-03-18T12:59:34.127Z,100153.34
2023-03-18T13:01:43.707Z,100154.16
2023-03-18T13:03:51.429Z,100151.38
2023-03-18T13:05:55.973Z,100151.69
2023-03-18T13:08:22.233Z,100142.63
2023-03-18T13:10:24.884Z,100143.66
2023-03-18T13:12:30.720Z,100143.19
2023-03-18T13:14:43.281Z,100139.88
2023-03-18T13:16:47.549Z,100143.69
2023-03-18T13:18:52.325Z,100138.09
2023-03-18T13:20:57.561Z,100138.03
2023-03-18T13:23:14.342Z,100144.47
2023-03-18T13:25:27.580Z,100142.13
2023-03-18T13:27:49.332Z,100126.50
2023-03-18T13:29:57.536Z,100132.03
2023-03-18T13:32:12.759Z,100142.91
2023-03-18T13:34:37.077Z,100137.44
2023-03-18T13:37:07.921Z,100141.63
2023-03-18T13:39:22.384Z,100142.06
2023-03-18T13:42:05.451Z,100139.31
2023-03-18T13:44:14.371Z,100130.03
2023-03-18T13:46:23.469Z,100131.69
2023-03-18T13:48:30.790Z,100131.28
2023-03-18T13:50:35.479Z,100130.28
2023-03-18T13:52:42.031Z,100127.09
2023-03-18T13:54:43.646Z,100131.44
2023-03-18T13:56:49.552Z,100133.72
2023-03-18T13:58:51.343Z,100126.69
2023-03-18T14:01:27.079Z,100130.56
2023-03-18T14:03:31.234Z,100126.41
2023-03-18T14:05:38.547Z,100125.00
2023-03-18T14:07:47.280Z,100120.72
2023-03-18T14:09:54.872Z,100120.59
2023-03-18T14:12:04.766Z,100125.03
2023-03-18T14:14:27.923Z,100123.88
2023-03-18T14:16:51.622Z,100119.50
2023-03-18T14:18:57.395Z,100113.50
2023-03-18T14:21:03.773Z,100120.84
2023-03-18T14:23:28.160Z,100125.34
2023-03-18T14:25:43.057Z,100122.06
2023-03-18T14:27:47.261Z,100116.47
2023-03-18T14:29:48.949Z,100116.47
2023-03-18T14:31:56.934Z,100108.59
2023-03-18T14:34:32.217Z,100111.38
2023-03-18T14:36:48.975Z,100116.94
2023-03-18T14:38:58.975Z,100104.78
2023-03-18T14:41:04.042Z,100107.19
2023-03-18T14:43:10.944Z,100102.25
2023-03-18T14:45:18.646Z,100104.84
2023-03-18T14:47:38.336Z,100099.25
2023-03-18T14:49:44.649Z,100110.19
2023-03-18T14:51:47.413Z,100100.88
2023-03-18T14:53:53.284Z,100095.81
2023-03-18T14:55:57.030Z,100099.16
2023-03-18T14:57:58.966Z,100098.31
2023-03-18T15:00:01.716Z,100099.41
2023-03-18T15:02:09.485Z,100102.16
2023-03-18T15:04:18.652Z,100093.97
2023-03-18T15:06:22.058Z,100104.06
2023-03-18T15:08:37.454Z,100098.22
2023-03-18T15:10:42.990Z,100094.50
2023-03-18T15:12:44.562Z,100092.34
2023-03-18T15:14:46.205Z,100087.31
2023-03-18T15:16:52.248Z,100089.06
2023-03-18T15:18:55.603Z,100090.06
2023-03-18T15:21:03.035Z,100088.75
2023-03-18T15:23:07.808Z,100088.63
2023-03-18T15:25:17.537Z,100084.97
2023-03-18T15:27:19.733Z,100083.19
2023-03-18T15:29:28.192Z,100079.88
2023-03-18T15:31:31.865Z,100087.97
2023-03-18T15:33:36.214Z,100090.34
2023-03-18T15:35:37.862Z,100082.06
2023-03-18T15:37:41.749Z,100085.31
2023-03-18T15:39:43.386Z,100087.97
2023-03-18T15:41:45.177Z,100083.38
2023-03-18T15:43:48.880Z,100080.91
2023-03-18T15:45:55.542Z,100081.28
2023-03-18T15:47:57.815Z,100077.59
2023-03-18T15:50:01.720Z,100071.75
2023-03-18T15:52:07.898Z,100071.41
2023-03-18T15:54:16.601Z,100067.91
2023-03-18T15:56:23.737Z,100073.41
2023-03-18T15:58:27.456Z,100070.66
2023-03-18T16:00:31.409Z,100069.88
2023-03-18T16:02:33.776Z,100069.81
2023-03-18T16:04:35.435Z,100070.47
2023-03-18T16:06:37.082Z,100076.66
2023-03-18T16:08:38.678Z,100071.91
2023-03-18T16:10:41.744Z,100072.66
2023-03-18T16:12:43.408Z,100073.88
2023-03-18T16:14:47.310Z,100067.22
2023-03-18T16:16:49.346Z,100066.34
2023-03-18T16:18:51.002Z,100065.28
2023-03-18T16:20:52.853Z,100067.22
2023-03-18T16:22:55.553Z,100073.88
2023-03-18T16:24:57.338Z,100073.44
2023-03-18T16:27:00.637Z,100074.50
2023-03-18T16:29:02.227Z,100077.09
2023-03-18T16:31:04.074Z,100077.09
2023-03-18T16:33:12.056Z,100082.13
2023-03-18T16:35:14.463Z,100077.75
2023-03-18T16:37:21.171Z,100073.28
2023-03-18T16:39:25.099Z,100074.31
2023-03-18T16:41:26.680Z,100088.75
2023-03-18T16:43:32.151Z,100088.03
2023-03-18T16:45:34.112Z,100090.25
2023-03-18T16:47:35.902Z,100089.84
2023-03-18T16:49:37.622Z,100089.84
2023-03-18T16:51:39.166Z,100091.25
2023-03-18T16:53:40.747Z,100091.19
2023-03-18T16:55:42.617Z,100093.09
2023-03-18T16:57:48.645Z,100096.66
2023-03-18T16:59:54.257Z,100098.50
2023-03-18T17:01:56.304Z,100089.53
2023-03-18T17:03:57.906Z,100093.41
2023-03-18T17:05:59.733Z,100096.16
2023-03-18T17:08:01.348Z,100096.84
2023-03-18T17:10:03.343Z,100101.47
2023-03-18T17:12:06.801Z,100101.81
2023-03-18T17:14:25.903Z,100108.00
2023-03-18T17:16:29.410Z,100108.72
2023-03-18T17:18:31.059Z,100103.94
2023-03-18T17:20:33.184Z,100109.25
2023-03-18T17:22:34.759Z,100123.56
2023-03-18T17:24:36.272Z,100123.81
2023-03-18T17:26:37.891Z,100120.44
2023-03-18T17:28:42.260Z,100123.09
2023-03-18T17:30:44.158Z,100118.25
2023-03-18T17:32:48.089Z,100123.72
2023-03-18T17:34:51.382Z,100115.75
2023-03-18T17:36:53.109Z,100121.59
2023-03-18T17:38:54.671Z,100124.94
2023-03-18T17:40:56.548Z,100130.25
2023-03-18T17:42:58.120Z,100126.78
2023-03-18T17:45:05.214Z,100125.41
2023-03-18T17:47:08.861Z,100127.69
2023-03-18T17:49:11.820Z,100115.06
2023-03-18T17:51:15.770Z,100121.22
2023-03-18T17:53:24.463Z,100125.81
2023-03-18T17:55:25.985Z,100130.56
2023-03-18T17:57:27.613Z,100128.56
2023-03-18T17:59:29.234Z,100133.28
2023-03-18T18:01:31.044Z,100134.34
2023-03-18T18:03:34.285Z,100134.59
2023-03-18T18:05:37.134Z,100132.09
2023-03-18T18:07:45.068Z,100128.25
2023-03-18T18:09:46.847Z,100128.16
2023-03-18T18:11:49.156Z,100136.13
2023-03-18T18:13:53.197Z,100137.53
2023-03-18T18:15:54.786Z,100136.78
2023-03-18T18:17:56.720Z,100139.16
2023-03-18T18:19:58.313Z,100130.78
2023-03-18T18:22:01.300Z,100134.75
2023-03-18T18:24:03.187Z,100136.56
2023-03-18T18:26:06.728Z,100137.38
2023-03-18T18:28:17.241Z,100139.19
2023-03-18T18:30:21.617Z,100142.03
2023-03-18T18:32:23.171Z,100145.81
2023-03-18T18:34:25.066Z,100142.28
2023-03-18T18:36:26.647Z,100145.59
2023-03-18T18:38:30.038Z,100144.22
2023-03-18T18:40:31.674Z,100146.84
2023-03-18T18:42:33.265Z,100144.69
2023-03-18T18:44:34.868Z,100151.72
2023-03-18T18:46:36.569Z,100157.22
2023-03-18T18:48:38.953Z,100156.97
2023-03-18T18:50:40.984Z,100155.72
2023-03-18T18:52:42.604Z,100154.00
2023-03-18T18:54:45.634Z,100158.69
2023-03-18T18:56:50.958Z,100155.50
2023-03-18T18:58:52.953Z,100152.78
2023-03-18T19:00:55.257Z,100161.66
2023-03-18T19:02:56.818Z,100165.25
2023-03-18T19:04:58.791Z,100159.81
2023-03-18T19:07:05.062Z,100154.22
2023-03-18T19:09:16.045Z,100159.69
2023-03-18T19:11:19.054Z,100163.09
2023-03-18T19:13:21.017Z,100163.06
2023-03-18T19:15:22.657Z,100163.06
2023-03-18T19:17:24.539Z,100164.22
2023-03-18T19:19:28.454Z,100176.25
2023-03-18T19:21:30.066Z,100163.78
2023-03-18T19:23:34.434Z,100165.47
2023-03-18T19:25:36.295Z,100167.16
2023-03-18T19:27:39.300Z,100163.28
2023-03-18T19:29:41.131Z,100171.00
2023-03-18T19:31:42.745Z,100168.84
2023-03-18T19:33:47.195Z,100173.81
2023-03-18T19:35:48.869Z,100179.50
2023-03-18T19:37:50.460Z,100175.25
2023-03-18T19:39:52.083Z,100175.03
2023-03-18T19:41:53.747Z,100176.16
2023-03-18T19:44:00.730Z,100171.03
2023-03-18T19:46:02.452Z,100169.66
2023-03-18T19:48:04.486Z,100167.44
2023-03-18T19:50:14.293Z,100170.31
2023-03-18T19:52:18.485Z,100167.59
2023-03-18T19:54:27.458Z,100163.72
2023-03-18T19:56:29.552Z,100160.81
2023-03-18T19:58:31.730Z,100168.53
2023-03-18T20:00:34.744Z,100172.03
2023-03-18T20:02:36.359Z,100167.97
2023-03-18T20:04:38.057Z,100177.50
2023-03-18T20:06:39.789Z,100168.72
2023-03-18T20:08:41.382Z,100180.41
2023-03-18T20:10:43.520Z,100185.78
2023-03-18T20:12:47.349Z,100179.75
2023-03-18T20:14:49.458Z,100177.69
2023-03-18T20:16:52.706Z,100190.00
2023-03-18T20:18:54.384Z,100195.75
2023-03-18T20:20:56.003Z,100190.78
2023-03-18T20:22:59.819Z,100190.00
2023-03-18T20:25:02.746Z,100191.78
2023-03-18T20:27:11.450Z,100194.16
2023-03-18T20:29:17.581Z,100193.25
2023-03-18T20:31:19.226Z,100194.38
2023-03-18T20:33:23.163Z,100191.84
2023-03-18T20:35:27.415Z,100195.38
2023-03-18T20:37:35.594Z,100190.94
2023-03-18T20:39:37.241Z,100192.59
2023-03-18T20:41:38.972Z,100195.97
2023-03-18T20:43:40.614Z,100194.38
2023-03-18T20:45:42.495Z,100190.66
2023-03-18T20:47:44.806Z,100200.22
2023-03-18T20:49:47.776Z,100200.06
2023-03-18T20:51:52.532Z,100197.69
2023-03-18T20:53:54.149Z,100202.63
2023-03-18T20:55:55.995Z,100203.09
2023-03-18T20:57:58.396Z,100199.38
2023-03-18T21:00:00.031Z,100211.34
2023-03-18T21:02:01.646Z,100207.16
2023-03-18T21:04:03.611Z,100210.22
2023-03-18T21:06:06.931Z,100213.69
2023-03-18T21:08:10.039Z,100207.91
2023-03-18T21:10:16.415Z,100208.53
2023-03-18T21:12:19.836Z,100212.84
2023-03-18T21:14:21.538Z,100208.81
2023-03-18T21:16:23.236Z,100214.09
2023-03-18T21:18:25.505Z,100210.16
2023-03-18T21:20:29.039Z,100205.06
2023-03-18T21:22:32.035Z,100206.97
2023-03-18T21:24:33.562Z,100206.69
2023-03-18T21:26:35.215Z,100206.03
2023-03-18T21:28:36.781Z,100201.09
2023-03-18T21:30:38.415Z,100204.75
2023-03-18T21:32:40.137Z,100208.66
2023-03-18T21:34:41.728Z,100210.25
2023-03-18T21:36:43.262Z,100204.66
2023-03-18T21:38:46.399Z,100210.25
2023-03-18T21:40:47.947Z,100209.59
2023-03-18T21:42:50.316Z,100215.19
2023-03-18T21:44:52.556Z,100223.53
2023-03-18T21:46:54.121Z,100238.31
2023-03-18T21:48:55.707Z,100227.09
2023-03-18T21:50:58.165Z,100229.66
2023-03-18T21:52:59.803Z,100227.88
2023-03-18T21:55:05.013Z,100232.50
2023-03-18T21:57:14.141Z,100229.97
2023-03-18T21:59:15.730Z,100230.66
2023-03-18T22:01:20.917Z,100231.91
2023-03-18T22:03:24.016Z,100231.41
2023-03-18T22:05:25.539Z,100233.88
2023-03-18T22:07:29.193Z,100223.97
2023-03-18T22:09:30.770Z,100215.66
2023-03-18T22:11:33.661Z,100214.19
2023-03-18T22:13:35.355Z,100221.88
2023-03-18T22:15:39.210Z,100222.22
2023-03-18T22:17:40.892Z,100211.78
2023-03-18T22:19:42.434Z,100212.44
2023-03-18T22:21:44.084Z,100221.09
2023-03-18T22:23:45.677Z,100217.94
2023-03-18T22:25:49.237Z,100221.59
2023-03-18T22:27:52.244Z,100218.88
2023-03-18T22:29:57.218Z,100223.53
2023-03-18T22:31:58.853Z,100222.72
2023-03-18T22:34:00.564Z,100236.47
2023-03-18T22:36:02.265Z,100225.13
2023-03-18T22:38:03.822Z,100229.56
2023-03-18T22:40:06.758Z,100232.63
2023-03-18T22:42:14.023Z,100236.63
2023-03-18T22:44:22.551Z,100238.53
2023-03-18T22:46:24.189Z,100238.84
2023-03-18T22:48:28.608Z,100243.00
2023-03-18T22:50:32.547Z,100240.44
2023-03-18T22:52:34.228Z,100244.75
2023-03-18T22:54:36.419Z,100243.47
2023-03-18T22:56:38.042Z,100247.78
2023-03-18T22:58:39.919Z,100245.38
2023-03-18T23:00:44.149Z,100242.97
2023-03-18T23:02:45.826Z,100249.97
2023-03-18T23:04:49.437Z,100251.25
2023-03-18T23:06:51.055Z,100253.03
2023-03-18T23:08:52.749Z,100257.97
2023-03-18T23:10:56.096Z,100259.91
2023-03-18T23:12:57.772Z,100265.44
2023-03-18T23:14:59.376Z,100265.13
2023-03-18T23:17:02.364Z,100261.59
2023-03-18T23:19:03.915Z,100267.34
2023-03-18T23:21:05.913Z,100270.06
2023-03-18T23:23:07.849Z,100261.44
2023-03-18T23:25:13.981Z,100267.53
2023-03-18T23:27:15.535Z,100262.41
2023-03-18T23:29:17.240Z,100261.75
2023-03-18T23:31:18.851Z,100265.44
2023-03-18T23:33:21.816Z,100261.94
2023-03-18T23:35:23.860Z,100269.44
2023-03-18T23:37:25.408Z,100254.56
2023-03-18T23:39:27.033Z,100257.44
2023-03-18T23:41:28.654Z,100258.41